createdAt,value
2023-12-17T00:02:13.115Z,53.82
2023-12-17T00:04:57.986Z,54.42
2023-12-17T00:07:43.010Z,54.18
2023-12-17T00:10:27.878Z,54.17
2023-12-17T00:13:13.056Z,54.78
2023-12-17T00:15:57.835Z,55.09
2023-12-17T00:18:42.883Z,55.63
2023-12-17T00:21:27.989Z,55.56
2023-12-17T00:24:12.951Z,55.54
2023-12-17T00:26:57.922Z,55.61
2023-12-17T00:29:42.958Z,55.39
2023-12-17T00:32:27.926Z,54.85
2023-12-17T00:35:12.894Z,55.02
2023-12-17T00:37:57.834Z,54.91
2023-12-17T00:40:42.748Z,53.82
2023-12-17T00:43:27.806Z,53.37
2023-12-17T00:46:12.797Z,53.91
2023-12-17T00:48:57.846Z,54.01
2023-12-17T00:51:42.816Z,54.18
2023-12-17T00:54:27.633Z,54.68
2023-12-17T00:57:12.636Z,54.49
2023-12-17T00:59:57.555Z,55.42
2023-12-17T01:02:42.395Z,55.43
2023-12-17T01:05:27.450Z,54.66
2023-12-17T01:08:12.246Z,55.10
2023-12-17T01:10:57.308Z,55.18
2023-12-17T01:13:42.195Z,54.73
2023-12-17T01:16:27.109Z,54.44
2023-12-17T01:19:12.133Z,53.82
2023-12-17T01:21:57.143Z,54.16
2023-12-17T01:24:42.025Z,55.29
2023-12-17T01:27:27.036Z,54.93
2023-12-17T01:30:12.206Z,54.91
2023-12-17T01:32:57.118Z,55.02
2023-12-17T01:35:42.092Z,54.72
2023-12-17T01:38:27.017Z,55.38
2023-12-17T01:41:11.947Z,54.96
2023-12-17T01:43:56.865Z,54.57
2023-12-17T01:46:41.851Z,54.65
2023-12-17T01:49:26.847Z,55.26
2023-12-17T01:52:11.648Z,54.88
2023-12-17T01:54:56.643Z,55.32
2023-12-17T01:57:41.812Z,56.22
2023-12-17T02:00:26.746Z,56.26
2023-12-17T02:03:11.648Z,55.25
2023-12-17T02:05:56.720Z,54.85
2023-12-17T02:08:41.649Z,54.72
2023-12-17T02:11:26.714Z,55.31
2023-12-17T02:14:11.692Z,55.45
2023-12-17T02:16:56.652Z,55.27
2023-12-17T02:19:41.830Z,55.31
2023-12-17T02:22:26.693Z,54.95
2023-12-17T02:25:11.755Z,55.68
2023-12-17T02:27:56.666Z,55.49
2023-12-17T02:30:41.638Z,56.39
2023-12-17T02:33:26.872Z,57.13
2023-12-17T02:36:12.033Z,56.26
2023-12-17T02:38:56.944Z,55.67
2023-12-17T02:41:41.863Z,55.81
2023-12-17T02:44:26.969Z,55.64
2023-12-17T02:47:11.954Z,55.69
2023-12-17T02:49:57.126Z,54.79
2023-12-17T02:52:41.897Z,55.27
2023-12-17T02:55:26.784Z,56.55
2023-12-17T02:58:11.887Z,56.55
2023-12-17T03:00:56.956Z,55.31
2023-12-17T03:03:41.984Z,54.45
2023-12-17T03:06:26.924Z,55.04
2023-12-17T03:09:11.906Z,55.14
2023-12-17T03:11:56.896Z,55.67
2023-12-17T03:14:41.870Z,54.39
2023-12-17T03:17:26.803Z,54.57
2023-12-17T03:20:11.664Z,54.35
2023-12-17T03:22:56.928Z,54.42
2023-12-17T03:25:41.905Z,54.93
2023-12-17T03:28:26.873Z,55.31
2023-12-17T03:31:11.785Z,55.52
2023-12-17T03:33:56.928Z,55.92
2023-12-17T03:36:41.760Z,55.81
2023-12-17T03:39:26.765Z,55.43
2023-12-17T03:42:11.815Z,55.36
2023-12-17T03:44:56.733Z,55.69
2023-12-17T03:47:41.884Z,56.04
2023-12-17T03:50:26.923Z,56.53
2023-12-17T03:53:12.185Z,56.48
2023-12-17T03:55:56.856Z,56.14
2023-12-17T03:58:41.875Z,56.15
2023-12-17T04:01:26.775Z,55.55
2023-12-17T04:04:11.795Z,55.00
2023-12-17T04:06:56.964Z,54.56
2023-12-17T04:09:41.738Z,54.77
2023-12-17T04:12:26.767Z,54.26
2023-12-17T04:15:11.901Z,53.51
2023-12-17T04:17:56.848Z,53.58
2023-12-17T04:20:41.852Z,53.73
2023-12-17T04:23:26.985Z,53.98
2023-12-17T04:26:12.052Z,54.01
2023-12-17T04:28:57.052Z,54.34
2023-12-17T04:31:41.952Z,54.14
2023-12-17T04:34:27.049Z,55.49
2023-12-17T04:37:11.923Z,54.80
2023-12-17T04:39:56.784Z,55.44
2023-12-17T04:42:41.811Z,55.82
2023-12-17T04:45:26.704Z,55.02
2023-12-17T04:48:11.723Z,56.04
2023-12-17T04:50:56.680Z,55.37
2023-12-17T04:53:41.641Z,56.32
2023-12-17T04:56:26.638Z,55.12
2023-12-17T04:59:11.549Z,54.41
2023-12-17T05:01:56.659Z,54.95
2023-12-17T05:04:41.586Z,54.96
2023-12-17T05:07:26.594Z,55.17
2023-12-17T05:10:11.403Z,54.35
2023-12-17T05:12:56.381Z,54.64
2023-12-17T05:15:41.374Z,54.76
2023-12-17T05:18:26.411Z,54.44
2023-12-17T05:21:11.403Z,54.89
2023-12-17T05:23:56.316Z,54.84
2023-12-17T05:26:41.280Z,55.16
2023-12-17T05:29:26.273Z,55.29
2023-12-17T05:32:11.379Z,55.32
2023-12-17T05:34:56.359Z,55.32
2023-12-17T05:37:41.546Z,55.75
2023-12-17T05:40:26.800Z,55.86
2023-12-17T05:43:11.723Z,56.40
2023-12-17T05:45:59.084Z,55.83
2023-12-17T05:48:44.323Z,55.87
2023-12-17T05:51:29.109Z,56.02
2023-12-17T05:54:14.213Z,55.96
2023-12-17T05:56:59.134Z,55.62
2023-12-17T05:59:44.177Z,55.41
2023-12-17T06:02:29.125Z,55.40
2023-12-17T06:05:14.089Z,55.70
2023-12-17T06:07:58.964Z,56.11
2023-12-17T06:10:44.026Z,55.76
2023-12-17T06:13:29.034Z,55.70
2023-12-17T06:16:14.067Z,55.93
2023-12-17T06:18:59.118Z,55.71
2023-12-17T06:21:43.972Z,55.76
2023-12-17T06:24:29.061Z,56.56
2023-12-17T06:27:14.067Z,55.79
2023-12-17T06:29:58.926Z,56.36
2023-12-17T06:32:43.932Z,56.01
2023-12-17T06:35:28.764Z,56.29
2023-12-17T06:38:13.933Z,55.05
2023-12-17T06:40:58.997Z,56.07
2023-12-17T06:43:44.005Z,55.68
2023-12-17T06:46:28.881Z,55.16
2023-12-17T06:49:14.274Z,54.53
2023-12-17T06:51:59.301Z,54.71
2023-12-17T06:54:44.367Z,56.25
2023-12-17T06:57:29.441Z,55.98
2023-12-17T07:00:14.373Z,55.14
2023-12-17T07:02:59.543Z,56.09
2023-12-17T07:05:44.505Z,56.12
2023-12-17T07:08:29.357Z,55.63
2023-12-17T07:11:14.292Z,55.34
2023-12-17T07:13:59.279Z,55.08
2023-12-17T07:16:44.145Z,55.31
2023-12-17T07:19:29.203Z,56.08
2023-12-17T07:22:14.203Z,56.03
2023-12-17T07:24:59.137Z,56.09
2023-12-17T07:27:44.143Z,55.00
2023-12-17T07:30:29.079Z,55.63
2023-12-17T07:33:14.139Z,56.11
2023-12-17T07:35:58.826Z,55.47
2023-12-17T07:38:43.970Z,56.43
2023-12-17T07:41:28.840Z,56.00
2023-12-17T07:44:13.993Z,56.21
2023-12-17T07:46:59.077Z,55.31
2023-12-17T07:49:44.029Z,55.68
2023-12-17T07:52:29.119Z,55.56
2023-12-17T07:55:13.960Z,55.61
2023-12-17T07:57:58.991Z,55.83
2023-12-17T08:00:44.061Z,55.86
2023-12-17T08:03:29.205Z,55.46
2023-12-17T08:06:14.141Z,55.52
2023-12-17T08:08:58.974Z,54.62
2023-12-17T08:11:44.013Z,54.01
2023-12-17T08:14:28.872Z,53.49
2023-12-17T08:17:13.954Z,53.74
2023-12-17T08:19:58.786Z,53.46
2023-12-17T08:22:43.702Z,53.39
2023-12-17T08:25:28.545Z,53.25
2023-12-17T08:28:13.635Z,52.87
2023-12-17T08:30:58.708Z,53.38
2023-12-17T08:33:43.661Z,53.19
2023-12-17T08:36:28.706Z,52.77
2023-12-17T08:39:13.474Z,52.27
2023-12-17T08:41:58.482Z,52.00
2023-12-17T08:44:43.397Z,51.43
2023-12-17T08:47:28.557Z,50.48
2023-12-17T08:50:13.296Z,50.53
2023-12-17T08:52:58.251Z,50.57
2023-12-17T08:55:43.273Z,50.41
2023-12-17T08:58:28.159Z,50.31
2023-12-17T09:01:13.256Z,49.85
2023-12-17T09:03:58.356Z,49.66
2023-12-17T09:06:43.172Z,50.14
2023-12-17T09:09:28.242Z,49.68
2023-12-17T09:12:13.262Z,49.51
2023-12-17T09:14:58.169Z,49.80
2023-12-17T09:17:43.493Z,49.33
2023-12-17T09:20:28.669Z,48.94
2023-12-17T09:23:13.662Z,49.18
2023-12-17T09:25:58.818Z,49.20
2023-12-17T09:28:43.767Z,49.00
2023-12-17T09:31:28.756Z,48.85
2023-12-17T09:34:13.671Z,48.36
2023-12-17T09:36:58.603Z,48.02
2023-12-17T09:39:43.483Z,48.71
2023-12-17T09:42:28.572Z,48.72
2023-12-17T09:45:13.629Z,49.16
2023-12-17T09:47:58.683Z,48.92
2023-12-17T09:50:43.633Z,49.14
2023-12-17T09:53:28.443Z,48.88
2023-12-17T09:56:13.570Z,49.21
2023-12-17T09:58:58.463Z,49.17
2023-12-17T10:01:43.601Z,48.84
2023-12-17T10:04:28.702Z,48.87
2023-12-17T10:07:13.605Z,48.30
2023-12-17T10:09:58.460Z,48.13
2023-12-17T10:12:43.881Z,48.09
2023-12-17T10:15:29.412Z,48.06
2023-12-17T10:18:14.230Z,48.12
2023-12-17T10:20:59.226Z,47.73
2023-12-17T10:23:44.289Z,47.37
2023-12-17T10:26:29.215Z,47.70
2023-12-17T10:29:14.114Z,47.70
2023-12-17T10:31:59.032Z,47.82
2023-12-17T10:34:44.273Z,48.07
2023-12-17T10:37:29.031Z,47.88
2023-12-17T10:40:14.106Z,47.94
2023-12-17T10:42:59.053Z,47.66
2023-12-17T10:45:44.058Z,47.39
2023-12-17T10:48:29.157Z,47.17
2023-12-17T10:51:14.061Z,47.41
2023-12-17T10:53:59.034Z,47.33
2023-12-17T10:56:43.919Z,47.48
2023-12-17T10:59:35.362Z,47.29
2023-12-17T11:02:25.449Z,46.73
2023-12-17T11:05:10.426Z,46.60
2023-12-17T11:07:55.280Z,46.50
2023-12-17T11:10:40.287Z,46.45
2023-12-17T11:13:25.435Z,46.43
2023-12-17T11:16:10.145Z,46.46
2023-12-17T11:18:55.134Z,46.78
2023-12-17T11:21:40.093Z,46.03
2023-12-17T11:24:25.016Z,45.42
2023-12-17T11:27:10.082Z,45.78
2023-12-17T11:29:55.049Z,46.36
2023-12-17T11:32:39.954Z,47.31
2023-12-17T11:35:25.111Z,46.69
2023-12-17T11:38:09.886Z,45.85
2023-12-17T11:40:54.859Z,46.13
2023-12-17T11:43:39.965Z,46.10
2023-12-17T11:46:24.993Z,46.63
2023-12-17T11:49:10.046Z,46.39
2023-12-17T11:51:55.097Z,46.49
2023-12-17T11:54:40.238Z,46.32
2023-12-17T11:57:25.153Z,46.32
2023-12-17T12:00:10.214Z,45.50
2023-12-17T12:02:55.352Z,45.03
2023-12-17T12:05:40.395Z,44.93
2023-12-17T12:08:25.431Z,44.29
2023-12-17T12:11:12.587Z,44.00
2023-12-17T12:13:58.052Z,43.64
2023-12-17T12:16:43.149Z,44.18
2023-12-17T12:19:32.114Z,44.21
2023-12-17T12:22:17.814Z,44.39
2023-12-17T12:25:02.738Z,44.28
2023-12-17T12:27:47.726Z,44.16
2023-12-17T12:30:32.731Z,44.28
2023-12-17T12:33:17.619Z,44.58
2023-12-17T12:36:02.853Z,44.25
2023-12-17T12:38:47.669Z,44.58
2023-12-17T12:41:32.733Z,44.93
2023-12-17T12:44:17.725Z,44.89
2023-12-17T12:47:02.752Z,44.81
2023-12-17T12:49:47.797Z,45.20
2023-12-17T12:52:32.761Z,46.05
2023-12-17T12:55:17.859Z,47.49
2023-12-17T12:58:02.870Z,46.78
2023-12-17T13:00:47.977Z,46.34
2023-12-17T13:03:32.849Z,46.59
2023-12-17T13:06:17.708Z,46.58
2023-12-17T13:09:03.158Z,46.83
2023-12-17T13:11:48.119Z,47.17
2023-12-17T13:14:33.145Z,47.62
2023-12-17T13:17:18.272Z,47.48
2023-12-17T13:20:03.530Z,47.59
2023-12-17T13:22:48.456Z,48.04
2023-12-17T13:25:33.517Z,47.73
2023-12-17T13:28:18.498Z,48.37
2023-12-17T13:31:03.638Z,48.55
2023-12-17T13:33:48.509Z,48.10
2023-12-17T13:36:33.636Z,49.19
2023-12-17T13:39:18.591Z,49.50
2023-12-17T13:42:03.673Z,49.21
2023-12-17T13:44:48.477Z,48.41
2023-12-17T13:47:33.427Z,48.20
2023-12-17T13:50:18.523Z,47.57
2023-12-17T13:53:04.555Z,48.20
2023-12-17T13:55:49.531Z,48.67
2023-12-17T13:58:34.672Z,50.02
2023-12-17T14:01:19.590Z,49.23
2023-12-17T14:04:04.735Z,49.51
2023-12-17T14:06:49.575Z,50.12
2023-12-17T14:09:34.638Z,50.09
2023-12-17T14:12:20.674Z,49.92
2023-12-17T14:15:05.503Z,49.14
2023-12-17T14:17:50.385Z,49.59
2023-12-17T14:20:35.368Z,49.19
2023-12-17T14:23:20.319Z,49.26
2023-12-17T14:26:05.202Z,48.95
2023-12-17T14:28:50.316Z,48.83
2023-12-17T14:31:35.219Z,49.29
2023-12-17T14:34:20.481Z,49.30
2023-12-17T14:37:05.173Z,49.32
2023-12-17T14:39:50.150Z,49.19
2023-12-17T14:42:35.268Z,49.99
2023-12-17T14:45:20.163Z,50.09
2023-12-17T14:48:05.458Z,49.88
2023-12-17T14:50:50.288Z,49.68
2023-12-17T14:53:37.912Z,50.24
2023-12-17T14:56:24.189Z,50.22
2023-12-17T14:59:09.094Z,50.66
2023-12-17T15:01:54.182Z,50.08
2023-12-17T15:04:38.955Z,50.58
2023-12-17T15:07:24.039Z,50.45
2023-12-17T15:10:08.965Z,51.20
2023-12-17T15:12:53.978Z,52.06
2023-12-17T15:15:39.057Z,51.91
2023-12-17T15:18:24.284Z,51.59
2023-12-17T15:21:09.322Z,51.21
2023-12-17T15:23:54.144Z,51.80
2023-12-17T15:26:39.249Z,50.58
2023-12-17T15:29:24.270Z,50.88
2023-12-17T15:32:09.243Z,52.46
2023-12-17T15:34:54.277Z,52.41
2023-12-17T15:37:39.245Z,52.43
2023-12-17T15:40:24.353Z,52.51
2023-12-17T15:43:09.356Z,52.42
2023-12-17T15:45:54.459Z,52.74
2023-12-17T15:48:39.430Z,52.25
2023-12-17T15:51:26.217Z,51.60
2023-12-17T15:54:12.406Z,51.58
2023-12-17T15:56:57.315Z,52.56
2023-12-17T15:59:42.325Z,52.54
2023-12-17T16:02:27.284Z,52.46
2023-12-17T16:05:12.116Z,53.25
2023-12-17T16:07:57.053Z,52.42
2023-12-17T16:10:42.034Z,52.59
2023-12-17T16:13:27.061Z,52.67
2023-12-17T16:16:12.027Z,53.36
2023-12-17T16:18:57.156Z,53.91
2023-12-17T16:21:41.986Z,54.75
2023-12-17T16:24:27.010Z,54.06
2023-12-17T16:27:11.936Z,53.30
2023-12-17T16:29:56.857Z,53.42
2023-12-17T16:32:41.997Z,54.33
2023-12-17T16:35:26.795Z,54.11
2023-12-17T16:38:11.819Z,54.07
2023-12-17T16:40:56.748Z,54.07
2023-12-17T16:43:41.823Z,53.65
2023-12-17T16:46:26.828Z,54.31
2023-12-17T16:49:11.921Z,53.86
2023-12-17T16:51:56.702Z,53.82
2023-12-17T16:54:41.679Z,52.88
2023-12-17T16:57:26.712Z,53.27
2023-12-17T17:00:11.629Z,54.61
2023-12-17T17:02:56.718Z,54.83
2023-12-17T17:05:41.759Z,54.63
2023-12-17T17:08:26.768Z,54.55
2023-12-17T17:11:13.615Z,54.34
2023-12-17T17:13:59.109Z,54.47
2023-12-17T17:16:44.013Z,54.13
2023-12-17T17:19:29.145Z,54.43
2023-12-17T17:22:14.021Z,54.03
2023-12-17T17:24:58.866Z,53.70
2023-12-17T17:27:43.931Z,54.39
2023-12-17T17:30:28.878Z,54.32
2023-12-17T17:33:13.806Z,53.63
2023-12-17T17:35:58.676Z,53.78
2023-12-17T17:38:43.644Z,53.19
2023-12-17T17:41:28.697Z,53.58
2023-12-17T17:44:13.589Z,53.81
2023-12-17T17:46:58.678Z,53.58
2023-12-17T17:49:43.677Z,54.39
2023-12-17T17:52:28.525Z,53.67
2023-12-17T17:55:13.316Z,53.88
2023-12-17T17:57:58.344Z,53.45
2023-12-17T18:00:43.445Z,53.85
2023-12-17T18:03:28.287Z,54.06
2023-12-17T18:06:13.254Z,53.83
2023-12-17T18:08:58.152Z,53.79
2023-12-17T18:11:43.128Z,53.34
2023-12-17T18:14:28.031Z,53.74
2023-12-17T18:17:13.081Z,54.08
2023-12-17T18:19:57.869Z,54.26
2023-12-17T18:22:43.212Z,54.86
2023-12-17T18:25:27.995Z,55.21
2023-12-17T18:28:14.391Z,54.49
2023-12-17T18:30:59.261Z,54.47
2023-12-17T18:33:44.309Z,53.83
2023-12-17T18:36:29.205Z,53.61
2023-12-17T18:39:14.327Z,53.59
2023-12-17T18:41:59.311Z,54.32
2023-12-17T18:44:44.181Z,54.13
2023-12-17T18:47:29.012Z,54.01
2023-12-17T18:50:14.032Z,54.12
2023-12-17T18:52:58.931Z,53.92
2023-12-17T18:55:43.970Z,53.47
2023-12-17T18:58:28.861Z,52.30
2023-12-17T19:01:13.869Z,51.84
2023-12-17T19:03:59.026Z,52.90
2023-12-17T19:06:43.950Z,52.59
2023-12-17T19:09:28.997Z,52.78
2023-12-17T19:12:13.988Z,52.72
2023-12-17T19:14:58.981Z,53.12
2023-12-17T19:17:43.914Z,52.88
2023-12-17T19:20:28.864Z,53.36
2023-12-17T19:23:13.795Z,53.99
2023-12-17T19:25:58.891Z,52.93
2023-12-17T19:28:43.883Z,52.44
2023-12-17T19:31:28.859Z,52.46
2023-12-17T19:34:13.888Z,52.01
2023-12-17T19:36:58.743Z,52.81
2023-12-17T19:39:43.824Z,52.34
2023-12-17T19:42:28.942Z,52.41
2023-12-17T19:45:14.027Z,52.41
2023-12-17T19:47:59.201Z,52.31
2023-12-17T19:50:43.941Z,52.49
2023-12-17T19:53:28.975Z,53.76
2023-12-17T19:56:14.009Z,53.35
2023-12-17T19:58:59.155Z,53.62
2023-12-17T20:01:44.239Z,53.64
2023-12-17T20:04:29.342Z,53.56
2023-12-17T20:07:14.431Z,53.90
2023-12-17T20:09:59.476Z,53.57
2023-12-17T20:12:44.899Z,53.00
2023-12-17T20:15:29.526Z,52.77
2023-12-17T20:18:14.606Z,52.65
2023-12-17T20:20:59.564Z,52.72
2023-12-17T20:23:44.677Z,52.19
2023-12-17T20:26:29.535Z,52.32
2023-12-17T20:29:14.457Z,52.82
2023-12-17T20:31:59.413Z,53.37
2023-12-17T20:34:44.432Z,53.15
2023-12-17T20:37:29.415Z,53.09
2023-12-17T20:40:14.353Z,52.74
2023-12-17T20:42:59.545Z,53.43
2023-12-17T20:45:44.395Z,53.87
2023-12-17T20:48:29.430Z,54.06
2023-12-17T20:51:14.357Z,53.42
2023-12-17T20:53:59.415Z,53.26
2023-12-17T20:56:44.249Z,53.25
2023-12-17T20:59:29.319Z,52.72
2023-12-17T21:02:14.320Z,53.04
2023-12-17T21:04:59.329Z,53.07
2023-12-17T21:07:44.400Z,53.26
2023-12-17T21:10:29.281Z,53.36
2023-12-17T21:13:14.337Z,53.59
2023-12-17T21:15:59.148Z,53.28
2023-12-17T21:18:44.329Z,53.08
2023-12-17T21:21:29.207Z,52.46
2023-12-17T21:24:14.124Z,53.63
2023-12-17T21:27:00.317Z,53.58
2023-12-17T21:29:46.585Z,53.28
2023-12-17T21:32:31.564Z,53.35
2023-12-17T21:35:16.549Z,52.87
2023-12-17T21:38:01.550Z,52.73
2023-12-17T21:40:46.541Z,52.48
2023-12-17T21:43:31.460Z,52.71
2023-12-17T21:46:16.555Z,52.70
2023-12-17T21:49:01.975Z,52.67
2023-12-17T21:51:46.888Z,52.70
2023-12-17T21:54:31.855Z,52.48
2023-12-17T21:57:19.105Z,52.80
2023-12-17T22:00:04.460Z,52.55
2023-12-17T22:02:49.186Z,52.76
2023-12-17T22:05:34.255Z,53.02
2023-12-17T22:08:18.992Z,52.78
2023-12-17T22:11:04.074Z,52.85
2023-12-17T22:13:48.894Z,52.88
2023-12-17T22:16:33.900Z,52.51
2023-12-17T22:19:18.999Z,51.93
2023-12-17T22:22:03.784Z,51.41
2023-12-17T22:24:48.793Z,51.58
2023-12-17T22:27:33.797Z,51.35
2023-12-17T22:30:18.997Z,51.88
2023-12-17T22:33:03.719Z,51.78
2023-12-17T22:35:48.691Z,51.10
2023-12-17T22:38:33.719Z,50.65
2023-12-17T22:41:18.688Z,51.44
2023-12-17T22:44:03.754Z,51.40
2023-12-17T22:46:48.686Z,50.85
2023-12-17T22:49:33.970Z,51.30
2023-12-17T22:52:18.837Z,51.44
2023-12-17T22:55:03.888Z,51.15
2023-12-17T22:57:48.786Z,51.04
2023-12-17T23:00:33.818Z,51.30
2023-12-17T23:03:18.784Z,50.92
2023-12-17T23:06:04.264Z,50.39
2023-12-17T23:08:49.503Z,50.27
2023-12-17T23:11:34.423Z,50.85
2023-12-17T23:14:19.630Z,50.64
2023-12-17T23:17:04.638Z,50.73
2023-12-17T23:19:49.650Z,50.88
2023-12-17T23:22:34.599Z,51.10
2023-12-17T23:25:19.546Z,51.14
2023-12-17T23:28:04.615Z,49.94
2023-12-17T23:30:49.579Z,50.48
2023-12-17T23:33:34.568Z,50.94
2023-12-17T23:36:19.287Z,51.06
2023-12-17T23:39:04.334Z,50.89
2023-12-17T23:41:49.179Z,51.09
2023-12-17T23:44:34.142Z,50.78
2023-12-17T23:47:19.046Z,50.52
2023-12-17T23:50:04.048Z,50.89
2023-12-17T23:52:49.133Z,51.36
2023-12-17T23:55:34.064Z,51.58
2023-12-17T23:58:19.177Z,51.73
